Airfield :
LOGIN :

Register | Disclaimer

   EN    FR    IT 

 










Legend :    VFR   Marginal VFR   IFR   Intensive IFR   Very Intensive IFR
Visi :
Ceiling :
>= 8 km
>= 3000ft
5 to 8 km
1000 to 3000 ft
1500m to 5 km
500 to 1000 ft
800 to 1500m
200 to 500 ft
< 800m
< 200 ft
Symbols :   Thunderstorms  Fog  Heavy snow  Heavy precipitations  Wind > 20 kt
SIGMETs :     Misc.  Thunderstorms  Icing  Turbulence  Mountain Waves  Volcanic Ashes






- Airport Elevation : -13 ft
- IATA code : LEY


EHLE - Lelystad

CURRENT METAR :
  • 061725Z AUTO 23015KT 9999 NSC 12/08 Q0999 NOSIG

EXPIRED METARs :
  • 061655Z AUTO 24014KT 9999 FEW043 12/08 Q0999 NOSIG
  • 061625Z AUTO 22014KT 190V250 7000 -SHRA FEW016 SCT030 BKN042 11/08 Q0999 REDZ NOSIG
  • 061555Z AUTO 23013KT 190V270 9999 DZ BKN037 BKN042 12/07 Q0999 NOSIG
  • 061525Z AUTO 22015KT 190V260 9999 -RA SCT041 BKN045 BKN049 13/06 Q0999 RERA REDZ NOSIG
  • 061455Z AUTO 23017G29KT 200V260 9999 -RA FEW041 SCT048 13/06 Q0998 NOSIG

TAF TAF EHLE
Valid from the 06 at 18:00 until the 08 at 00:00 UTC


061704Z 0618/0724 21019G30KT 7000 -RA SCT020 BKN030
BECMG 0619/0622 20014KT 9999 NSW BKN045
TEMPO 0700/0710 6000 SHRA SCT020CB BKN025
PROB30
TEMPO 0702/0710 29016G26KT 4000 TSRA BKN014 SCT018CB
BECMG 0703/0706 28015KT FEW018 SCT035
BECMG 0715/0718 25008KT



MET'MAP, your aeronautical weather chart ! - Copyright ORBIFLY December 2007 - Disclaimer

ORBIFLY MET'MAP TEAM :

Programming & Development : Alexandra Zaïnal
Concept & original design : Baudouin d'Aumeries
Assistance for programming : Marc-Olivier Méhu
Technical & hardware support : Manuel Goepfert

Contact : metmap@orbifly.com




SOURCES & CREDITS :

   NOAA